sensor_id;sensor_type;location;lat;lon;timestamp;P1;durP1;ratioP1;P2;durP2;ratioP2
53519;SDS011;39397;53.204;5.778;2023-12-22T00:01:41;21.48;;;4.38;;
53519;SDS011;39397;53.204;5.778;2023-12-22T00:04:07;23.52;;;3.38;;
53519;SDS011;39397;53.204;5.778;2023-12-22T00:06:33;19.63;;;3.30;;
53519;SDS011;39397;53.204;5.778;2023-12-22T00:08:58;16.15;;;3.35;;
53519;SDS011;39397;53.204;5.778;2023-12-22T00:11:24;25.45;;;4.97;;
53519;SDS011;39397;53.204;5.778;2023-12-22T00:13:50;19.77;;;3.40;;
53519;SDS011;39397;53.204;5.778;2023-12-22T00:16:15;22.50;;;5.35;;
53519;SDS011;39397;53.204;5.778;2023-12-22T00:18:41;20.35;;;5.00;;
53519;SDS011;39397;53.204;5.778;2023-12-22T00:21:10;16.92;;;4.93;;
53519;SDS011;39397;53.204;5.778;2023-12-22T00:23:36;14.65;;;3.70;;
53519;SDS011;39397;53.204;5.778;2023-12-22T00:26:03;26.00;;;5.22;;
53519;SDS011;39397;53.204;5.778;2023-12-22T00:28:30;20.02;;;3.63;;
53519;SDS011;39397;53.204;5.778;2023-12-22T00:30:57;25.05;;;5.28;;
53519;SDS011;39397;53.204;5.778;2023-12-22T00:33:23;36.45;;;5.63;;
53519;SDS011;39397;53.204;5.778;2023-12-22T00:35:49;30.50;;;5.22;;
53519;SDS011;39397;53.204;5.778;2023-12-22T00:38:15;25.10;;;4.97;;
53519;SDS011;39397;53.204;5.778;2023-12-22T00:40:40;25.92;;;4.78;;
53519;SDS011;39397;53.204;5.778;2023-12-22T00:43:06;25.52;;;4.32;;
53519;SDS011;39397;53.204;5.778;2023-12-22T00:45:32;26.92;;;5.22;;
53519;SDS011;39397;53.204;5.778;2023-12-22T00:47:57;25.05;;;5.63;;
53519;SDS011;39397;53.204;5.778;2023-12-22T00:50:23;27.50;;;5.55;;
53519;SDS011;39397;53.204;5.778;2023-12-22T00:52:49;24.10;;;4.38;;
53519;SDS011;39397;53.204;5.778;2023-12-22T00:55:14;9.80;;;2.45;;
53519;SDS011;39397;53.204;5.778;2023-12-22T00:57:40;23.15;;;2.85;;
53519;SDS011;39397;53.204;5.778;2023-12-22T01:00:06;25.17;;;3.92;;
53519;SDS011;39397;53.204;5.778;2023-12-22T01:02:35;18.80;;;3.28;;
53519;SDS011;39397;53.204;5.778;2023-12-22T01:05:01;28.02;;;5.10;;
53519;SDS011;39397;53.204;5.778;2023-12-22T01:07:27;19.85;;;3.40;;
53519;SDS011;39397;53.204;5.778;2023-12-22T01:09:52;20.65;;;3.55;;
53519;SDS011;39397;53.204;5.778;2023-12-22T01:12:19;21.48;;;5.20;;
53519;SDS011;39397;53.204;5.778;2023-12-22T01:14:44;21.08;;;4.05;;
53519;SDS011;39397;53.204;5.778;2023-12-22T01:17:10;18.45;;;4.65;;
53519;SDS011;39397;53.204;5.778;2023-12-22T01:19:36;25.60;;;3.97;;
53519;SDS011;39397;53.204;5.778;2023-12-22T01:22:02;21.15;;;4.25;;
53519;SDS011;39397;53.204;5.778;2023-12-22T01:24:27;19.02;;;4.22;;
53519;SDS011;39397;53.204;5.778;2023-12-22T01:26:53;26.08;;;5.60;;
53519;SDS011;39397;53.204;5.778;2023-12-22T01:29:19;31.27;;;6.10;;
53519;SDS011;39397;53.204;5.778;2023-12-22T01:31:45;23.73;;;4.35;;
53519;SDS011;39397;53.204;5.778;2023-12-22T01:34:10;28.33;;;5.40;;
53519;SDS011;39397;53.204;5.778;2023-12-22T01:36:36;23.63;;;5.40;;
53519;SDS011;39397;53.204;5.778;2023-12-22T01:39:02;19.52;;;4.10;;
53519;SDS011;39397;53.204;5.778;2023-12-22T01:41:28;21.75;;;4.03;;
53519;SDS011;39397;53.204;5.778;2023-12-22T01:43:53;22.45;;;4.07;;
53519;SDS011;39397;53.204;5.778;2023-12-22T01:46:19;19.25;;;2.95;;
53519;SDS011;39397;53.204;5.778;2023-12-22T01:48:46;20.40;;;3.25;;
53519;SDS011;39397;53.204;5.778;2023-12-22T01:51:12;11.27;;;2.25;;
53519;SDS011;39397;53.204;5.778;2023-12-22T01:53:37;17.48;;;4.47;;
53519;SDS011;39397;53.204;5.778;2023-12-22T01:56:03;10.38;;;2.35;;
53519;SDS011;39397;53.204;5.778;2023-12-22T01:58:30;11.13;;;2.40;;
53519;SDS011;39397;53.204;5.778;2023-12-22T02:00:59;8.95;;;1.27;;
53519;SDS011;39397;53.204;5.778;2023-12-22T02:03:26;13.10;;;2.90;;
53519;SDS011;39397;53.204;5.778;2023-12-22T02:05:53;15.38;;;2.53;;
53519;SDS011;39397;53.204;5.778;2023-12-22T02:08:19;13.15;;;2.05;;
53519;SDS011;39397;53.204;5.778;2023-12-22T02:10:46;15.13;;;3.28;;
53519;SDS011;39397;53.204;5.778;2023-12-22T02:13:12;15.55;;;2.70;;
53519;SDS011;39397;53.204;5.778;2023-12-22T02:15:38;14.52;;;2.45;;
53519;SDS011;39397;53.204;5.778;2023-12-22T02:20:34;15.40;;;2.50;;
53519;SDS011;39397;53.204;5.778;2023-12-22T02:23:00;17.42;;;2.97;;
53519;SDS011;39397;53.204;5.778;2023-12-22T02:25:26;9.88;;;2.38;;
53519;SDS011;39397;53.204;5.778;2023-12-22T02:27:58;9.77;;;1.77;;
53519;SDS011;39397;53.204;5.778;2023-12-22T02:33:01;6.60;;;1.38;;
53519;SDS011;39397;53.204;5.778;2023-12-22T02:35:30;13.15;;;1.90;;
53519;SDS011;39397;53.204;5.778;2023-12-22T02:38:00;9.85;;;1.23;;
53519;SDS011;39397;53.204;5.778;2023-12-22T02:40:28;10.90;;;1.60;;
53519;SDS011;39397;53.204;5.778;2023-12-22T02:42:54;11.70;;;2.15;;
53519;SDS011;39397;53.204;5.778;2023-12-22T02:45:20;13.13;;;1.63;;
53519;SDS011;39397;53.204;5.778;2023-12-22T02:47:46;7.80;;;1.55;;
53519;SDS011;39397;53.204;5.778;2023-12-22T02:50:15;17.15;;;2.63;;
53519;SDS011;39397;53.204;5.778;2023-12-22T02:52:42;26.83;;;3.38;;
53519;SDS011;39397;53.204;5.778;2023-12-22T02:55:08;18.75;;;2.33;;
53519;SDS011;39397;53.204;5.778;2023-12-22T02:57:33;24.50;;;2.78;;
53519;SDS011;39397;53.204;5.778;2023-12-22T02:59:59;25.58;;;5.35;;
53519;SDS011;39397;53.204;5.778;2023-12-22T03:02:25;22.58;;;3.20;;
53519;SDS011;39397;53.204;5.778;2023-12-22T03:04:51;18.27;;;2.90;;
53519;SDS011;39397;53.204;5.778;2023-12-22T03:07:17;14.35;;;2.45;;
53519;SDS011;39397;53.204;5.778;2023-12-22T03:09:42;25.92;;;4.35;;
53519;SDS011;39397;53.204;5.778;2023-12-22T03:12:09;20.08;;;4.72;;
53519;SDS011;39397;53.204;5.778;2023-12-22T03:14:35;22.70;;;3.42;;
53519;SDS011;39397;53.204;5.778;2023-12-22T03:17:05;21.20;;;4.18;;
53519;SDS011;39397;53.204;5.778;2023-12-22T03:19:31;17.85;;;4.05;;
53519;SDS011;39397;53.204;5.778;2023-12-22T03:21:58;21.67;;;3.10;;
53519;SDS011;39397;53.204;5.778;2023-12-22T03:24:25;17.92;;;2.70;;
53519;SDS011;39397;53.204;5.778;2023-12-22T03:26:52;23.33;;;3.30;;
53519;SDS011;39397;53.204;5.778;2023-12-22T03:29:18;19.73;;;3.80;;
53519;SDS011;39397;53.204;5.778;2023-12-22T03:31:44;24.05;;;3.00;;
53519;SDS011;39397;53.204;5.778;2023-12-22T03:34:11;20.77;;;4.30;;
53519;SDS011;39397;53.204;5.778;2023-12-22T03:36:37;16.98;;;3.08;;
53519;SDS011;39397;53.204;5.778;2023-12-22T03:39:03;17.80;;;3.08;;
53519;SDS011;39397;53.204;5.778;2023-12-22T03:41:29;19.50;;;3.90;;
53519;SDS011;39397;53.204;5.778;2023-12-22T03:43:55;26.13;;;2.92;;
53519;SDS011;39397;53.204;5.778;2023-12-22T03:46:21;13.07;;;2.70;;
53519;SDS011;39397;53.204;5.778;2023-12-22T03:48:48;19.42;;;3.05;;
53519;SDS011;39397;53.204;5.778;2023-12-22T03:51:14;18.77;;;3.05;;
53519;SDS011;39397;53.204;5.778;2023-12-22T03:53:40;17.35;;;3.30;;
53519;SDS011;39397;53.204;5.778;2023-12-22T03:56:09;16.40;;;4.00;;
53519;SDS011;39397;53.204;5.778;2023-12-22T03:58:35;21.77;;;3.83;;
53519;SDS011;39397;53.204;5.778;2023-12-22T04:01:01;28.65;;;5.72;;
53519;SDS011;39397;53.204;5.778;2023-12-22T04:03:27;23.33;;;4.18;;
53519;SDS011;39397;53.204;5.778;2023-12-22T04:05:53;22.73;;;3.80;;
53519;SDS011;39397;53.204;5.778;2023-12-22T04:08:19;26.00;;;3.60;;
53519;SDS011;39397;53.204;5.778;2023-12-22T04:10:47;21.10;;;4.38;;
53519;SDS011;39397;53.204;5.778;2023-12-22T04:13:13;15.57;;;3.20;;
53519;SDS011;39397;53.204;5.778;2023-12-22T04:15:39;27.67;;;4.30;;
53519;SDS011;39397;53.204;5.778;2023-12-22T04:18:05;14.30;;;3.60;;
53519;SDS011;39397;53.204;5.778;2023-12-22T04:20:31;24.27;;;4.03;;
53519;SDS011;39397;53.204;5.778;2023-12-22T04:22:57;23.40;;;3.95;;
53519;SDS011;39397;53.204;5.778;2023-12-22T04:25:23;21.48;;;5.38;;
53519;SDS011;39397;53.204;5.778;2023-12-22T04:27:50;18.92;;;3.20;;
53519;SDS011;39397;53.204;5.778;2023-12-22T04:30:16;26.45;;;3.78;;
53519;SDS011;39397;53.204;5.778;2023-12-22T04:32:41;19.27;;;3.35;;
53519;SDS011;39397;53.204;5.778;2023-12-22T04:35:07;20.23;;;4.05;;
53519;SDS011;39397;53.204;5.778;2023-12-22T04:37:33;17.25;;;2.75;;
53519;SDS011;39397;53.204;5.778;2023-12-22T04:39:59;20.95;;;3.38;;
53519;SDS011;39397;53.204;5.778;2023-12-22T04:42:24;24.13;;;3.78;;
53519;SDS011;39397;53.204;5.778;2023-12-22T04:44:51;20.10;;;3.90;;
53519;SDS011;39397;53.204;5.778;2023-12-22T04:47:17;12.95;;;2.80;;
53519;SDS011;39397;53.204;5.778;2023-12-22T04:49:42;14.02;;;3.28;;
53519;SDS011;39397;53.204;5.778;2023-12-22T04:52:08;20.67;;;3.22;;
53519;SDS011;39397;53.204;5.778;2023-12-22T04:54:34;21.38;;;3.78;;
53519;SDS011;39397;53.204;5.778;2023-12-22T04:57:00;20.15;;;4.22;;
53519;SDS011;39397;53.204;5.778;2023-12-22T04:59:25;15.82;;;3.15;;
53519;SDS011;39397;53.204;5.778;2023-12-22T05:01:51;20.00;;;3.92;;
53519;SDS011;39397;53.204;5.778;2023-12-22T05:04:17;14.57;;;2.95;;
53519;SDS011;39397;53.204;5.778;2023-12-22T05:06:43;12.90;;;2.45;;
53519;SDS011;39397;53.204;5.778;2023-12-22T05:09:10;17.65;;;2.20;;
53519;SDS011;39397;53.204;5.778;2023-12-22T05:11:36;20.60;;;3.42;;
53519;SDS011;39397;53.204;5.778;2023-12-22T05:14:02;15.10;;;3.05;;
53519;SDS011;39397;53.204;5.778;2023-12-22T05:16:27;24.90;;;3.78;;
53519;SDS011;39397;53.204;5.778;2023-12-22T05:18:56;22.73;;;3.78;;
53519;SDS011;39397;53.204;5.778;2023-12-22T05:21:24;13.65;;;2.78;;
53519;SDS011;39397;53.204;5.778;2023-12-22T05:23:50;25.35;;;5.20;;
53519;SDS011;39397;53.204;5.778;2023-12-22T05:26:19;19.30;;;4.50;;
53519;SDS011;39397;53.204;5.778;2023-12-22T05:28:46;17.67;;;3.53;;
53519;SDS011;39397;53.204;5.778;2023-12-22T05:31:12;16.45;;;3.10;;
53519;SDS011;39397;53.204;5.778;2023-12-22T05:33:38;15.05;;;2.95;;
53519;SDS011;39397;53.204;5.778;2023-12-22T05:36:03;16.50;;;2.83;;
53519;SDS011;39397;53.204;5.778;2023-12-22T05:38:29;25.20;;;3.70;;
53519;SDS011;39397;53.204;5.778;2023-12-22T05:40:56;11.45;;;3.13;;
53519;SDS011;39397;53.204;5.778;2023-12-22T05:43:22;12.30;;;2.20;;
53519;SDS011;39397;53.204;5.778;2023-12-22T05:45:47;13.63;;;3.13;;
53519;SDS011;39397;53.204;5.778;2023-12-22T05:48:13;18.90;;;2.88;;
53519;SDS011;39397;53.204;5.778;2023-12-22T05:50:39;20.35;;;2.50;;
53519;SDS011;39397;53.204;5.778;2023-12-22T05:53:04;14.85;;;2.47;;
53519;SDS011;39397;53.204;5.778;2023-12-22T05:55:30;16.55;;;3.08;;
53519;SDS011;39397;53.204;5.778;2023-12-22T05:57:56;19.38;;;2.38;;
53519;SDS011;39397;53.204;5.778;2023-12-22T06:00:21;17.88;;;3.30;;
53519;SDS011;39397;53.204;5.778;2023-12-22T06:02:47;15.10;;;2.83;;
53519;SDS011;39397;53.204;5.778;2023-12-22T06:05:13;21.27;;;3.92;;
53519;SDS011;39397;53.204;5.778;2023-12-22T06:07:39;23.00;;;3.40;;
53519;SDS011;39397;53.204;5.778;2023-12-22T06:10:06;16.45;;;2.78;;
53519;SDS011;39397;53.204;5.778;2023-12-22T06:12:34;22.58;;;4.03;;
53519;SDS011;39397;53.204;5.778;2023-12-22T06:15:00;16.38;;;2.85;;
53519;SDS011;39397;53.204;5.778;2023-12-22T06:17:26;20.60;;;2.92;;
53519;SDS011;39397;53.204;5.778;2023-12-22T06:19:52;15.98;;;2.75;;
53519;SDS011;39397;53.204;5.778;2023-12-22T06:22:17;14.48;;;2.50;;
53519;SDS011;39397;53.204;5.778;2023-12-22T06:24:43;14.13;;;2.90;;
53519;SDS011;39397;53.204;5.778;2023-12-22T06:27:09;13.15;;;2.53;;
53519;SDS011;39397;53.204;5.778;2023-12-22T06:29:35;27.33;;;3.25;;
53519;SDS011;39397;53.204;5.778;2023-12-22T06:32:01;11.73;;;2.40;;
53519;SDS011;39397;53.204;5.778;2023-12-22T06:34:26;28.33;;;3.40;;
53519;SDS011;39397;53.204;5.778;2023-12-22T06:36:52;12.98;;;3.10;;
53519;SDS011;39397;53.204;5.778;2023-12-22T06:39:18;16.00;;;2.63;;
53519;SDS011;39397;53.204;5.778;2023-12-22T06:41:44;19.60;;;4.03;;
53519;SDS011;39397;53.204;5.778;2023-12-22T06:44:10;15.55;;;3.38;;
53519;SDS011;39397;53.204;5.778;2023-12-22T06:46:36;17.80;;;3.47;;
53519;SDS011;39397;53.204;5.778;2023-12-22T06:49:02;14.98;;;2.70;;
53519;SDS011;39397;53.204;5.778;2023-12-22T06:51:28;14.75;;;2.72;;
53519;SDS011;39397;53.204;5.778;2023-12-22T06:53:55;17.90;;;3.03;;
53519;SDS011;39397;53.204;5.778;2023-12-22T06:56:23;15.13;;;2.50;;
53519;SDS011;39397;53.204;5.778;2023-12-22T06:58:50;19.77;;;3.60;;
53519;SDS011;39397;53.204;5.778;2023-12-22T07:01:18;15.90;;;2.50;;
53519;SDS011;39397;53.204;5.778;2023-12-22T07:03:45;11.07;;;2.47;;
53519;SDS011;39397;53.204;5.778;2023-12-22T07:06:13;14.82;;;2.50;;
53519;SDS011;39397;53.204;5.778;2023-12-22T07:11:41;15.85;;;2.40;;
53519;SDS011;39397;53.204;5.778;2023-12-22T07:14:09;16.45;;;2.80;;
53519;SDS011;39397;53.204;5.778;2023-12-22T07:16:35;16.05;;;2.65;;
53519;SDS011;39397;53.204;5.778;2023-12-22T07:19:01;18.30;;;3.65;;
53519;SDS011;39397;53.204;5.778;2023-12-22T07:21:27;20.30;;;3.00;;
53519;SDS011;39397;53.204;5.778;2023-12-22T07:23:53;21.42;;;3.17;;
53519;SDS011;39397;53.204;5.778;2023-12-22T07:26:19;29.02;;;6.70;;
53519;SDS011;39397;53.204;5.778;2023-12-22T07:28:46;15.68;;;2.53;;
53519;SDS011;39397;53.204;5.778;2023-12-22T07:31:13;13.77;;;2.78;;
53519;SDS011;39397;53.204;5.778;2023-12-22T07:33:42;16.95;;;3.28;;
53519;SDS011;39397;53.204;5.778;2023-12-22T07:36:09;19.58;;;3.55;;
53519;SDS011;39397;53.204;5.778;2023-12-22T07:38:35;17.45;;;3.90;;
53519;SDS011;39397;53.204;5.778;2023-12-22T07:41:01;14.90;;;2.42;;
53519;SDS011;39397;53.204;5.778;2023-12-22T07:43:27;10.95;;;2.13;;
53519;SDS011;39397;53.204;5.778;2023-12-22T07:45:54;16.48;;;2.67;;
53519;SDS011;39397;53.204;5.778;2023-12-22T07:48:20;15.70;;;1.92;;
53519;SDS011;39397;53.204;5.778;2023-12-22T07:50:46;9.95;;;2.50;;
53519;SDS011;39397;53.204;5.778;2023-12-22T07:53:12;9.35;;;1.52;;
53519;SDS011;39397;53.204;5.778;2023-12-22T07:55:37;8.63;;;1.70;;
53519;SDS011;39397;53.204;5.778;2023-12-22T07:58:06;8.52;;;2.03;;
53519;SDS011;39397;53.204;5.778;2023-12-22T08:00:32;6.07;;;1.13;;
53519;SDS011;39397;53.204;5.778;2023-12-22T08:02:58;7.45;;;1.00;;
53519;SDS011;39397;53.204;5.778;2023-12-22T08:05:25;8.65;;;1.30;;
53519;SDS011;39397;53.204;5.778;2023-12-22T08:07:51;11.68;;;1.73;;
53519;SDS011;39397;53.204;5.778;2023-12-22T08:10:17;5.18;;;0.68;;
53519;SDS011;39397;53.204;5.778;2023-12-22T08:12:42;7.53;;;0.70;;
53519;SDS011;39397;53.204;5.778;2023-12-22T08:15:08;6.45;;;0.63;;
53519;SDS011;39397;53.204;5.778;2023-12-22T08:17:37;7.80;;;1.92;;
53519;SDS011;39397;53.204;5.778;2023-12-22T08:20:10;6.85;;;1.25;;
53519;SDS011;39397;53.204;5.778;2023-12-22T08:22:36;6.47;;;0.75;;
53519;SDS011;39397;53.204;5.778;2023-12-22T08:25:02;6.90;;;1.10;;
53519;SDS011;39397;53.204;5.778;2023-12-22T08:27:27;11.13;;;1.35;;
53519;SDS011;39397;53.204;5.778;2023-12-22T08:29:53;7.63;;;1.25;;
53519;SDS011;39397;53.204;5.778;2023-12-22T08:32:19;5.30;;;1.50;;
53519;SDS011;39397;53.204;5.778;2023-12-22T08:34:44;7.68;;;1.42;;
53519;SDS011;39397;53.204;5.778;2023-12-22T08:37:10;18.52;;;3.20;;
53519;SDS011;39397;53.204;5.778;2023-12-22T08:39:36;11.70;;;1.80;;
53519;SDS011;39397;53.204;5.778;2023-12-22T08:42:01;10.70;;;2.20;;
53519;SDS011;39397;53.204;5.778;2023-12-22T08:44:27;9.25;;;2.22;;
53519;SDS011;39397;53.204;5.778;2023-12-22T08:46:53;15.25;;;2.00;;
53519;SDS011;39397;53.204;5.778;2023-12-22T08:49:19;14.50;;;2.00;;
53519;SDS011;39397;53.204;5.778;2023-12-22T08:51:44;19.73;;;3.03;;
53519;SDS011;39397;53.204;5.778;2023-12-22T08:54:10;11.25;;;1.75;;
53519;SDS011;39397;53.204;5.778;2023-12-22T08:56:36;20.15;;;2.50;;
53519;SDS011;39397;53.204;5.778;2023-12-22T08:59:01;15.80;;;2.47;;
53519;SDS011;39397;53.204;5.778;2023-12-22T09:01:27;16.13;;;3.05;;
53519;SDS011;39397;53.204;5.778;2023-12-22T09:03:53;10.10;;;2.03;;
53519;SDS011;39397;53.204;5.778;2023-12-22T09:06:20;15.57;;;2.83;;
53519;SDS011;39397;53.204;5.778;2023-12-22T09:08:47;10.80;;;2.17;;
53519;SDS011;39397;53.204;5.778;2023-12-22T09:11:15;14.88;;;2.60;;
53519;SDS011;39397;53.204;5.778;2023-12-22T09:13:42;8.57;;;1.55;;
53519;SDS011;39397;53.204;5.778;2023-12-22T09:16:08;14.10;;;2.13;;
53519;SDS011;39397;53.204;5.778;2023-12-22T09:18:35;17.48;;;3.47;;
53519;SDS011;39397;53.204;5.778;2023-12-22T09:21:01;13.52;;;2.38;;
53519;SDS011;39397;53.204;5.778;2023-12-22T09:23:28;13.68;;;1.98;;
53519;SDS011;39397;53.204;5.778;2023-12-22T09:25:56;12.85;;;2.47;;
53519;SDS011;39397;53.204;5.778;2023-12-22T09:28:23;16.92;;;2.67;;
53519;SDS011;39397;53.204;5.778;2023-12-22T09:30:49;11.77;;;1.70;;
53519;SDS011;39397;53.204;5.778;2023-12-22T09:33:15;15.85;;;2.33;;
53519;SDS011;39397;53.204;5.778;2023-12-22T09:35:40;16.42;;;2.42;;
53519;SDS011;39397;53.204;5.778;2023-12-22T09:38:07;17.33;;;2.33;;
53519;SDS011;39397;53.204;5.778;2023-12-22T09:40:40;13.48;;;2.42;;
53519;SDS011;39397;53.204;5.778;2023-12-22T09:43:07;15.50;;;2.75;;
53519;SDS011;39397;53.204;5.778;2023-12-22T09:45:34;17.33;;;3.25;;
53519;SDS011;39397;53.204;5.778;2023-12-22T09:48:01;20.25;;;2.75;;
53519;SDS011;39397;53.204;5.778;2023-12-22T09:50:27;10.40;;;1.98;;
53519;SDS011;39397;53.204;5.778;2023-12-22T09:52:53;13.68;;;2.55;;
53519;SDS011;39397;53.204;5.778;2023-12-22T09:55:23;20.58;;;2.58;;
53519;SDS011;39397;53.204;5.778;2023-12-22T09:57:50;19.40;;;2.30;;
53519;SDS011;39397;53.204;5.778;2023-12-22T10:00:17;33.30;;;4.75;;
53519;SDS011;39397;53.204;5.778;2023-12-22T10:02:43;17.10;;;2.75;;
53519;SDS011;39397;53.204;5.778;2023-12-22T10:05:11;14.18;;;2.20;;
53519;SDS011;39397;53.204;5.778;2023-12-22T10:07:40;14.25;;;2.95;;
53519;SDS011;39397;53.204;5.778;2023-12-22T10:10:09;15.25;;;2.40;;
53519;SDS011;39397;53.204;5.778;2023-12-22T10:12:37;16.20;;;3.22;;
53519;SDS011;39397;53.204;5.778;2023-12-22T10:15:05;14.98;;;2.65;;
53519;SDS011;39397;53.204;5.778;2023-12-22T10:17:33;20.17;;;3.20;;
53519;SDS011;39397;53.204;5.778;2023-12-22T10:20:01;17.38;;;2.42;;
53519;SDS011;39397;53.204;5.778;2023-12-22T10:22:28;16.50;;;2.25;;
53519;SDS011;39397;53.204;5.778;2023-12-22T10:24:53;13.60;;;2.28;;
53519;SDS011;39397;53.204;5.778;2023-12-22T10:27:19;17.02;;;2.63;;
53519;SDS011;39397;53.204;5.778;2023-12-22T10:29:54;16.50;;;2.83;;
53519;SDS011;39397;53.204;5.778;2023-12-22T10:32:20;15.43;;;2.92;;
53519;SDS011;39397;53.204;5.778;2023-12-22T10:34:47;21.33;;;2.95;;
53519;SDS011;39397;53.204;5.778;2023-12-22T10:37:13;14.27;;;2.17;;
53519;SDS011;39397;53.204;5.778;2023-12-22T10:39:39;12.75;;;2.33;;
53519;SDS011;39397;53.204;5.778;2023-12-22T10:42:05;12.23;;;2.22;;
53519;SDS011;39397;53.204;5.778;2023-12-22T10:44:31;18.55;;;2.25;;
53519;SDS011;39397;53.204;5.778;2023-12-22T10:46:57;15.60;;;2.03;;
53519;SDS011;39397;53.204;5.778;2023-12-22T10:49:25;15.60;;;2.42;;
53519;SDS011;39397;53.204;5.778;2023-12-22T10:51:51;9.35;;;1.90;;
53519;SDS011;39397;53.204;5.778;2023-12-22T10:54:17;12.32;;;1.52;;
53519;SDS011;39397;53.204;5.778;2023-12-22T10:56:45;13.55;;;2.17;;
53519;SDS011;39397;53.204;5.778;2023-12-22T10:59:10;14.27;;;2.20;;
53519;SDS011;39397;53.204;5.778;2023-12-22T11:01:37;10.35;;;1.92;;
53519;SDS011;39397;53.204;5.778;2023-12-22T11:04:07;11.23;;;1.95;;
53519;SDS011;39397;53.204;5.778;2023-12-22T11:06:37;21.15;;;2.83;;
53519;SDS011;39397;53.204;5.778;2023-12-22T11:09:08;13.73;;;2.58;;
53519;SDS011;39397;53.204;5.778;2023-12-22T11:11:35;16.98;;;2.78;;
53519;SDS011;39397;53.204;5.778;2023-12-22T11:14:02;18.02;;;3.05;;
53519;SDS011;39397;53.204;5.778;2023-12-22T11:16:29;15.50;;;2.25;;
53519;SDS011;39397;53.204;5.778;2023-12-22T11:18:55;17.83;;;2.95;;
53519;SDS011;39397;53.204;5.778;2023-12-22T11:21:22;14.30;;;2.85;;
53519;SDS011;39397;53.204;5.778;2023-12-22T11:23:49;14.55;;;2.65;;
53519;SDS011;39397;53.204;5.778;2023-12-22T11:26:18;16.13;;;2.40;;
53519;SDS011;39397;53.204;5.778;2023-12-22T11:28:45;13.35;;;2.58;;
53519;SDS011;39397;53.204;5.778;2023-12-22T11:31:12;13.88;;;2.85;;
53519;SDS011;39397;53.204;5.778;2023-12-22T11:33:45;10.75;;;2.72;;
53519;SDS011;39397;53.204;5.778;2023-12-22T11:38:39;7.75;;;1.55;;
53519;SDS011;39397;53.204;5.778;2023-12-22T11:41:06;12.85;;;2.05;;
53519;SDS011;39397;53.204;5.778;2023-12-22T11:43:36;11.32;;;2.05;;
53519;SDS011;39397;53.204;5.778;2023-12-22T11:46:04;11.98;;;2.25;;
53519;SDS011;39397;53.204;5.778;2023-12-22T11:48:30;14.18;;;2.33;;
53519;SDS011;39397;53.204;5.778;2023-12-22T11:50:56;14.30;;;1.92;;
53519;SDS011;39397;53.204;5.778;2023-12-22T11:53:22;19.60;;;4.13;;
53519;SDS011;39397;53.204;5.778;2023-12-22T12:01:12;16.15;;;2.25;;
53519;SDS011;39397;53.204;5.778;2023-12-22T12:03:42;12.68;;;2.70;;
53519;SDS011;39397;53.204;5.778;2023-12-22T12:08:55;11.30;;;2.50;;
53519;SDS011;39397;53.204;5.778;2023-12-22T12:14:19;14.93;;;2.60;;
53519;SDS011;39397;53.204;5.778;2023-12-22T12:16:48;12.30;;;2.47;;
53519;SDS011;39397;53.204;5.778;2023-12-22T12:19:14;15.15;;;2.30;;
53519;SDS011;39397;53.204;5.778;2023-12-22T12:21:40;9.77;;;1.45;;
53519;SDS011;39397;53.204;5.778;2023-12-22T12:24:06;16.52;;;2.95;;
53519;SDS011;39397;53.204;5.778;2023-12-22T12:26:34;13.13;;;1.83;;
53519;SDS011;39397;53.204;5.778;2023-12-22T12:29:00;11.48;;;2.08;;
53519;SDS011;39397;53.204;5.778;2023-12-22T12:31:36;13.60;;;2.00;;
53519;SDS011;39397;53.204;5.778;2023-12-22T12:34:07;10.00;;;1.67;;
53519;SDS011;39397;53.204;5.778;2023-12-22T12:36:35;9.27;;;1.77;;
53519;SDS011;39397;53.204;5.778;2023-12-22T12:39:06;10.27;;;2.00;;
53519;SDS011;39397;53.204;5.778;2023-12-22T12:41:32;11.18;;;2.15;;
53519;SDS011;39397;53.204;5.778;2023-12-22T12:44:05;11.90;;;1.80;;
53519;SDS011;39397;53.204;5.778;2023-12-22T12:46:33;11.77;;;1.90;;
53519;SDS011;39397;53.204;5.778;2023-12-22T12:49:03;15.32;;;2.55;;
53519;SDS011;39397;53.204;5.778;2023-12-22T12:51:39;15.65;;;2.65;;
53519;SDS011;39397;53.204;5.778;2023-12-22T12:54:07;16.63;;;2.67;;
53519;SDS011;39397;53.204;5.778;2023-12-22T12:56:46;11.98;;;2.40;;
53519;SDS011;39397;53.204;5.778;2023-12-22T12:59:14;14.05;;;2.28;;
53519;SDS011;39397;53.204;5.778;2023-12-22T13:01:42;10.60;;;1.60;;
53519;SDS011;39397;53.204;5.778;2023-12-22T13:04:09;14.68;;;2.45;;
53519;SDS011;39397;53.204;5.778;2023-12-22T13:06:42;12.82;;;2.10;;
53519;SDS011;39397;53.204;5.778;2023-12-22T13:09:17;15.77;;;2.33;;
53519;SDS011;39397;53.204;5.778;2023-12-22T13:11:44;7.63;;;2.08;;
53519;SDS011;39397;53.204;5.778;2023-12-22T13:14:23;10.48;;;1.63;;
53519;SDS011;39397;53.204;5.778;2023-12-22T13:16:56;12.77;;;2.10;;
53519;SDS011;39397;53.204;5.778;2023-12-22T13:19:23;14.55;;;2.08;;
53519;SDS011;39397;53.204;5.778;2023-12-22T13:21:55;12.00;;;1.75;;
53519;SDS011;39397;53.204;5.778;2023-12-22T13:24:21;12.60;;;2.20;;
53519;SDS011;39397;53.204;5.778;2023-12-22T13:26:58;16.35;;;2.42;;
53519;SDS011;39397;53.204;5.778;2023-12-22T13:29:29;10.85;;;1.27;;
53519;SDS011;39397;53.204;5.778;2023-12-22T13:31:55;11.93;;;1.98;;
53519;SDS011;39397;53.204;5.778;2023-12-22T13:34:22;7.10;;;1.20;;
53519;SDS011;39397;53.204;5.778;2023-12-22T13:36:48;8.98;;;1.27;;
53519;SDS011;39397;53.204;5.778;2023-12-22T13:39:14;7.90;;;1.02;;
53519;SDS011;39397;53.204;5.778;2023-12-22T13:41:40;8.23;;;0.90;;
53519;SDS011;39397;53.204;5.778;2023-12-22T13:44:10;8.88;;;1.30;;
53519;SDS011;39397;53.204;5.778;2023-12-22T13:46:36;10.05;;;1.30;;
53519;SDS011;39397;53.204;5.778;2023-12-22T13:49:05;6.72;;;1.40;;
53519;SDS011;39397;53.204;5.778;2023-12-22T13:51:42;8.98;;;1.20;;
53519;SDS011;39397;53.204;5.778;2023-12-22T13:54:09;11.23;;;1.73;;
53519;SDS011;39397;53.204;5.778;2023-12-22T13:56:38;5.82;;;0.90;;
53519;SDS011;39397;53.204;5.778;2023-12-22T13:59:08;7.70;;;1.00;;
53519;SDS011;39397;53.204;5.778;2023-12-22T14:01:34;6.45;;;0.70;;
53519;SDS011;39397;53.204;5.778;2023-12-22T14:04:00;5.60;;;1.05;;
53519;SDS011;39397;53.204;5.778;2023-12-22T14:06:26;9.50;;;1.23;;
53519;SDS011;39397;53.204;5.778;2023-12-22T14:08:53;13.82;;;1.70;;
53519;SDS011;39397;53.204;5.778;2023-12-22T14:11:19;9.18;;;1.35;;
53519;SDS011;39397;53.204;5.778;2023-12-22T14:13:45;10.63;;;2.53;;
53519;SDS011;39397;53.204;5.778;2023-12-22T14:16:10;11.05;;;1.50;;
53519;SDS011;39397;53.204;5.778;2023-12-22T14:18:36;9.82;;;1.23;;
53519;SDS011;39397;53.204;5.778;2023-12-22T14:21:02;8.30;;;1.40;;
53519;SDS011;39397;53.204;5.778;2023-12-22T14:23:30;9.52;;;1.48;;
53519;SDS011;39397;53.204;5.778;2023-12-22T14:25:58;8.27;;;1.30;;
53519;SDS011;39397;53.204;5.778;2023-12-22T14:28:24;5.95;;;1.60;;
53519;SDS011;39397;53.204;5.778;2023-12-22T14:30:49;13.70;;;1.52;;
53519;SDS011;39397;53.204;5.778;2023-12-22T14:33:16;9.85;;;1.42;;
53519;SDS011;39397;53.204;5.778;2023-12-22T14:35:41;12.70;;;2.17;;
53519;SDS011;39397;53.204;5.778;2023-12-22T14:38:07;10.32;;;1.58;;
53519;SDS011;39397;53.204;5.778;2023-12-22T14:40:33;10.75;;;2.00;;
53519;SDS011;39397;53.204;5.778;2023-12-22T14:42:58;16.80;;;2.22;;
53519;SDS011;39397;53.204;5.778;2023-12-22T14:45:26;11.90;;;1.45;;
53519;SDS011;39397;53.204;5.778;2023-12-22T14:47:52;9.50;;;1.85;;
53519;SDS011;39397;53.204;5.778;2023-12-22T14:50:18;11.98;;;1.92;;
53519;SDS011;39397;53.204;5.778;2023-12-22T14:52:44;13.10;;;1.85;;
53519;SDS011;39397;53.204;5.778;2023-12-22T14:55:10;11.63;;;1.70;;